PIMOHWEATHER Historical Data
 
Daily Summary for January 19, 2019 Units:  Metric    English   Both
« Previous Day
Next Day »
Daily Weekly Monthly Yearly Custom
  Current: High: Low: Average:
Temperature: 24.6 °C 25.3 °C 24.5 °C 24.9 °C
Dew Point: 17.8 °C 18 °C 17.7 °C 17.8 °C
Humidity: 66% 66% 63% 65%
Wind Speed: 0km/h 5.5km/h 0km/h 1km/h
Wind Gust: 0km/h 7.9km/h - -
WindCalm - - SW
Pressure: 1010.7 hPa 1011.7 hPa 1010.4 hPa -
Precipitation: 0 mm      
Historical Graphs
 
 
Tabular Data for January 19, 2019
Time Temp. Dew Point Pressure Wind Wind Speed Wind Gust Humidity Rain Rate (Hourly) Solar Radiation Conditions
00:04 25.2 °C 17.9 °C 1011.4 hPa Calm     64% 0 mm 0.00 W/m2
00:09 25.3 °C 18 °C 1011.4 hPa Calm     64% 0 mm 0.00 W/m2
00:14 25.3 °C 17.8 °C 1011.4 hPa Calm     63% 0 mm 0.00 W/m2
00:19 25.2 °C 17.9 °C 1011.4 hPa Calm     64% 0 mm 0.00 W/m2
00:24 25 °C 17.8 °C 1011.4 hPa North 2.6 km/h 4 km/h 64% 0 mm 0.00 W/m2
00:29 24.9 °C 17.9 °C 1011.7 hPa NW 2.9 km/h 4 km/h 65% 0 mm 0.00 W/m2
00:34 24.9 °C 17.9 °C 1011.7 hPa NNW 1.1 km/h 4 km/h 65% 0 mm 0.00 W/m2
00:39 25 °C 18 °C 1011.1 hPa Calm     65% 0 mm 0.00 W/m2
00:44 24.9 °C 17.9 °C 1011.1 hPa Calm     65% 0 mm 0.00 W/m2
00:49 25 °C 18 °C 1011.1 hPa NNE 2.1 km/h 4 km/h 65% 0 mm 0.00 W/m2
00:54 24.9 °C 17.9 °C 1011.4 hPa Calm     65% 0 mm 0.00 W/m2
00:59 24.9 °C 17.9 °C 1011.4 hPa Calm     65% 0 mm 0.00 W/m2
01:04 24.9 °C 17.7 °C 1011.1 hPa Calm     64% 0 mm 0.00 W/m2
01:09 24.9 °C 17.7 °C 1011.1 hPa Calm     64% 0 mm 0.00 W/m2
01:14 24.9 °C 17.9 °C 1011.1 hPa North 1.1 km/h 4 km/h 65% 0 mm 0.00 W/m2
01:19 24.9 °C 17.9 °C 1011.1 hPa Calm     65% 0 mm 0.00 W/m2
01:24 24.9 °C 17.9 °C 1011.1 hPa NNE 2.9 km/h 4 km/h 65% 0 mm 0.00 W/m2
01:29 24.8 °C 17.8 °C 1011.1 hPa Calm     65% 0 mm 0.00 W/m2
01:34 24.9 °C 17.9 °C 1011.1 hPa Calm     65% 0 mm 0.00 W/m2
01:39 24.9 °C 17.9 °C 1011.1 hPa North 5 km/h 7.9 km/h 65% 0 mm 0.00 W/m2
01:44 24.8 °C 17.8 °C 1011.1 hPa WNW 5.5 km/h 7.9 km/h 65% 0 mm 0.00 W/m2
01:49 24.6 °C 17.8 °C 1010.7 hPa WNW 1.1 km/h 4 km/h 66% 0 mm 0.00 W/m2
01:54 24.6 °C 17.8 °C 1010.7 hPa Calm     66% 0 mm 0.00 W/m2
01:59 24.6 °C 17.8 °C 1010.4 hPa Calm     66% 0 mm 0.00 W/m2
02:04 24.5 °C 17.7 °C 1010.4 hPa Calm     66% 0 mm 0.00 W/m2
02:09 24.6 °C 17.8 °C 1010.7 hPa Calm     66% 0 mm 0.00 W/m2
PIMOHWEATHER Philippines
Compliments of Weather Underground - 2 mb
www.000webhost.com